Longrun, Missouri
Current Conditions -  °F | °C
As of 10:53 AM on Saturday 22 Nov 2014 (Local Time) from KBPK Reporting Station
Light Rain Light Rain  
Wind Chill: 52°   Ceiling: 9000
Heat Index: 52°   Visibility: 8mi
Dew Point: 49°   Wind: 12mph
Humidity: 89%   Direction: 180°S
Pressure: 30.11"   Gusts: NA
Location:  36.5847°N, 92.7117°W
Report Text: KBPK 221653Z AUTO 18010KT 8SM -RA OVC090 11/09 A3011 RMK AO2 SLP198 P0008 T01110094
Loading
Personal Weather Stations






























Interactive Weather Map New forecast layout! Learn more

10-Day Weather Forecast

Advertisements
Track Severe Weather on mobile